createdAt,value
2022-08-14T00:01:54.706Z,7.88
2022-08-14T00:04:44.935Z,5.97
2022-08-14T00:07:35.521Z,5.88
2022-08-14T00:10:51.065Z,7.00
2022-08-14T00:13:37.549Z,10.50
2022-08-14T00:16:41.133Z,7.15
2022-08-14T00:19:33.635Z,7.10
2022-08-14T00:22:22.102Z,6.93
2022-08-14T00:25:30.563Z,7.47
2022-08-14T00:28:34.691Z,6.05
2022-08-14T00:34:35.310Z,5.38
2022-08-14T00:37:24.222Z,5.78
2022-08-14T00:40:27.589Z,7.10
2022-08-14T00:43:22.535Z,5.93
2022-08-14T00:46:32.163Z,6.43
2022-08-14T00:49:21.246Z,6.05
2022-08-14T00:52:08.286Z,6.25
2022-08-14T00:54:57.862Z,7.95
2022-08-14T00:57:45.529Z,9.23
2022-08-14T01:00:42.916Z,7.28
2022-08-14T01:03:42.208Z,8.60
2022-08-14T01:06:34.436Z,6.28
2022-08-14T01:09:22.970Z,6.63
2022-08-14T01:12:11.959Z,8.30
2022-08-14T01:15:02.197Z,7.80
2022-08-14T01:18:04.997Z,9.93
2022-08-14T01:21:03.441Z,6.65
2022-08-14T01:23:54.112Z,9.50
2022-08-14T01:26:42.914Z,10.65
2022-08-14T01:30:00.803Z,7.85
2022-08-14T01:32:51.407Z,9.32
2022-08-14T01:36:03.310Z,9.80
2022-08-14T01:38:50.532Z,9.38
2022-08-14T01:41:39.092Z,7.32
2022-08-14T01:44:32.698Z,9.15
2022-08-14T01:47:22.171Z,9.40
2022-08-14T01:50:11.322Z,7.20
2022-08-14T01:53:02.076Z,8.98
2022-08-14T01:55:57.917Z,9.18
2022-08-14T01:58:57.776Z,9.68
2022-08-14T02:01:51.542Z,9.15
2022-08-14T02:04:57.046Z,8.77
2022-08-14T02:07:55.965Z,10.50
2022-08-14T02:11:15.942Z,8.25
2022-08-14T02:14:09.339Z,7.28
2022-08-14T02:17:02.204Z,7.95
2022-08-14T02:19:48.962Z,8.82
2022-08-14T02:22:47.731Z,7.18
2022-08-14T02:25:35.510Z,10.70
2022-08-14T02:28:57.295Z,8.32
2022-08-14T02:31:43.643Z,7.03
2022-08-14T02:34:33.592Z,7.97
2022-08-14T02:37:23.638Z,7.35
2022-08-14T02:40:34.154Z,7.53
2022-08-14T02:43:23.297Z,8.60
2022-08-14T02:46:12.696Z,6.80
2022-08-14T02:49:06.383Z,8.60
2022-08-14T02:51:54.075Z,10.57
2022-08-14T02:54:43.760Z,8.93
2022-08-14T02:57:40.033Z,7.15
2022-08-14T03:00:28.117Z,10.70
2022-08-14T03:03:17.302Z,8.85
2022-08-14T03:06:07.180Z,7.82
2022-08-14T03:08:56.425Z,6.50
2022-08-14T03:11:48.186Z,6.30
2022-08-14T03:14:38.566Z,7.03
2022-08-14T03:17:25.623Z,8.40
2022-08-14T03:20:13.596Z,6.13
2022-08-14T03:23:03.341Z,10.93
2022-08-14T03:25:54.736Z,9.82
2022-08-14T03:28:43.728Z,7.25
2022-08-14T03:31:30.960Z,9.50
2022-08-14T03:34:24.921Z,6.30
2022-08-14T03:37:51.892Z,6.60
2022-08-14T03:40:34.932Z,7.78
2022-08-14T03:43:22.016Z,9.45
2022-08-14T03:46:52.216Z,5.47
2022-08-14T03:49:28.299Z,6.95
2022-08-14T03:52:28.057Z,10.73
2022-08-14T03:55:24.136Z,8.82
2022-08-14T03:58:13.049Z,6.20
2022-08-14T04:01:23.551Z,9.68
2022-08-14T04:04:16.563Z,9.60
2022-08-14T04:07:05.374Z,6.18
2022-08-14T04:09:52.700Z,7.15
2022-08-14T04:12:39.981Z,7.68
2022-08-14T04:15:28.651Z,6.30
2022-08-14T04:18:15.998Z,6.50
2022-08-14T04:21:06.054Z,7.07
2022-08-14T04:23:57.085Z,7.13
2022-08-14T04:26:47.805Z,7.38
2022-08-14T04:29:38.328Z,7.30
2022-08-14T04:33:10.698Z,5.50
2022-08-14T04:35:56.653Z,6.65
2022-08-14T04:38:57.919Z,7.20
2022-08-14T04:42:07.136Z,6.95
2022-08-14T04:45:01.067Z,7.00
2022-08-14T04:48:06.742Z,6.22
2022-08-14T04:50:55.933Z,6.43
2022-08-14T04:53:45.394Z,6.88
2022-08-14T04:56:34.034Z,7.28
2022-08-14T04:59:21.856Z,6.68
2022-08-14T05:02:08.738Z,9.45
2022-08-14T05:04:58.811Z,7.30
2022-08-14T05:07:54.683Z,5.75
2022-08-14T05:10:52.183Z,5.70
2022-08-14T05:14:16.132Z,4.75
2022-08-14T05:16:48.277Z,5.50
2022-08-14T05:19:36.499Z,7.57
2022-08-14T05:22:33.380Z,7.93
2022-08-14T05:25:20.720Z,6.95
2022-08-14T05:28:16.178Z,4.88
2022-08-14T05:31:06.954Z,5.97
2022-08-14T05:33:57.021Z,6.05
2022-08-14T05:36:44.095Z,6.15
2022-08-14T05:39:41.264Z,6.28
2022-08-14T05:42:29.511Z,6.95
2022-08-14T05:45:25.433Z,7.18
2022-08-14T05:48:32.987Z,8.30
2022-08-14T05:51:21.909Z,5.20
2022-08-14T05:54:12.688Z,4.78
2022-08-14T05:57:02.421Z,10.48
2022-08-14T05:59:49.662Z,5.00
2022-08-14T06:02:38.459Z,4.75
2022-08-14T06:05:28.499Z,4.72
2022-08-14T06:08:31.034Z,5.38
2022-08-14T06:11:31.033Z,5.35
2022-08-14T06:14:21.534Z,4.45
2022-08-14T06:17:25.592Z,5.20
2022-08-14T06:20:14.933Z,4.78
2022-08-14T06:23:02.025Z,4.88
2022-08-14T06:25:52.833Z,5.10
2022-08-14T06:28:40.983Z,6.40
2022-08-14T06:31:34.045Z,4.60
2022-08-14T06:35:03.560Z,4.32
2022-08-14T06:37:28.185Z,3.72
2022-08-14T06:40:27.284Z,4.97
2022-08-14T06:43:17.036Z,9.77
2022-08-14T06:46:04.609Z,3.92
2022-08-14T06:49:01.050Z,4.45
2022-08-14T06:51:49.915Z,4.60
2022-08-14T06:54:37.002Z,4.00
2022-08-14T06:57:24.017Z,4.75
2022-08-14T07:00:15.174Z,4.85
2022-08-14T07:03:23.842Z,5.28
2022-08-14T07:06:43.759Z,3.92
2022-08-14T07:09:23.319Z,4.28
2022-08-14T07:12:09.225Z,4.88
2022-08-14T07:15:16.213Z,5.90
2022-08-14T07:18:08.868Z,3.97
2022-08-14T07:20:56.845Z,3.97
2022-08-14T07:23:45.231Z,3.50
2022-08-14T07:26:32.000Z,4.53
2022-08-14T07:29:24.071Z,4.63
2022-08-14T07:32:13.064Z,9.05
2022-08-14T07:35:09.542Z,4.40
2022-08-14T07:37:56.801Z,7.75
2022-08-14T07:40:45.400Z,5.68
2022-08-14T07:43:32.205Z,4.60
2022-08-14T07:46:28.658Z,4.10
2022-08-14T07:49:20.210Z,5.00
2022-08-14T07:52:08.245Z,4.90
2022-08-14T07:54:56.053Z,3.42
2022-08-14T07:57:46.199Z,3.15
2022-08-14T08:00:34.435Z,6.10
2022-08-14T08:03:25.884Z,3.28
2022-08-14T08:06:18.070Z,3.45
2022-08-14T08:09:05.516Z,4.57
2022-08-14T08:11:54.635Z,3.13
2022-08-14T08:14:55.629Z,4.45
2022-08-14T08:17:53.352Z,2.97
2022-08-14T08:20:53.334Z,7.90
2022-08-14T08:23:50.920Z,3.30
2022-08-14T08:26:38.711Z,3.03
2022-08-14T08:29:29.123Z,4.32
2022-08-14T08:32:18.213Z,3.75
2022-08-14T08:35:05.673Z,3.30
2022-08-14T08:38:01.374Z,6.32
2022-08-14T08:40:51.213Z,6.35
2022-08-14T08:43:47.084Z,3.22
2022-08-14T08:46:35.743Z,7.93
2022-08-14T08:49:24.721Z,3.47
2022-08-14T08:52:15.305Z,3.17
2022-08-14T08:55:12.817Z,6.28
2022-08-14T08:58:01.748Z,3.22
2022-08-14T09:00:50.350Z,3.47
2022-08-14T09:07:09.834Z,5.32
2022-08-14T09:10:00.101Z,8.40
2022-08-14T09:12:51.655Z,6.30
2022-08-14T09:15:42.658Z,3.83
2022-08-14T09:18:30.613Z,6.72
2022-08-14T09:41:12.409Z,3.40
2022-08-14T09:44:07.704Z,6.22
2022-08-14T09:46:55.443Z,4.28
2022-08-14T09:52:33.335Z,3.78
2022-08-14T09:55:19.706Z,4.38
2022-08-14T09:58:19.325Z,6.28
2022-08-14T10:01:12.773Z,10.43
2022-08-14T10:04:00.384Z,3.17
2022-08-14T10:06:48.735Z,5.75
2022-08-14T10:10:00.259Z,8.35
2022-08-14T10:12:52.946Z,4.05
2022-08-14T10:15:48.397Z,3.10
2022-08-14T10:18:39.846Z,6.53
2022-08-14T10:21:26.893Z,4.88
2022-08-14T10:24:31.285Z,4.97
2022-08-14T10:27:27.292Z,3.25
2022-08-14T10:30:22.370Z,5.93
2022-08-14T10:33:10.307Z,3.22
2022-08-14T10:36:00.601Z,4.10
2022-08-14T10:38:59.038Z,7.40
2022-08-14T10:41:49.332Z,3.17
2022-08-14T10:44:47.462Z,3.83
2022-08-14T10:48:05.814Z,3.85
2022-08-14T10:50:50.422Z,3.47
2022-08-14T10:53:40.233Z,3.42
2022-08-14T10:56:35.596Z,6.18
2022-08-14T10:59:30.855Z,3.80
2022-08-14T11:02:45.153Z,3.95
2022-08-14T11:05:42.860Z,3.65
2022-08-14T11:08:33.934Z,5.68
2022-08-14T11:11:21.576Z,6.57
2022-08-14T11:14:09.471Z,3.28
2022-08-14T11:16:58.001Z,4.15
2022-08-14T11:19:53.865Z,3.10
2022-08-14T11:22:56.861Z,6.70
2022-08-14T11:25:53.469Z,3.33
2022-08-14T11:28:48.062Z,3.00
2022-08-14T11:31:39.430Z,3.95
2022-08-14T11:34:32.228Z,6.30
2022-08-14T11:37:33.809Z,3.17
2022-08-14T11:40:29.678Z,3.67
2022-08-14T11:43:18.433Z,4.38
2022-08-14T11:46:17.770Z,4.53
2022-08-14T11:49:34.237Z,2.95
2022-08-14T11:52:23.738Z,6.05
2022-08-14T11:55:13.700Z,3.65
2022-08-14T11:58:06.671Z,3.25
2022-08-14T12:03:57.227Z,3.45
2022-08-14T12:06:50.215Z,2.53
2022-08-14T12:09:42.859Z,3.42
2022-08-14T12:12:34.942Z,4.65
2022-08-14T12:15:32.956Z,7.30
2022-08-14T12:18:32.753Z,4.18
2022-08-14T12:21:22.368Z,5.28
2022-08-14T12:24:36.161Z,4.47
2022-08-14T12:27:25.321Z,2.63
2022-08-14T12:30:21.004Z,6.77
2022-08-14T12:33:27.001Z,2.95
2022-08-14T12:40:02.141Z,3.83
2022-08-14T12:42:56.523Z,3.03
2022-08-14T12:45:50.132Z,4.40
2022-08-14T12:48:50.293Z,3.55
2022-08-14T12:51:42.283Z,2.95
2022-08-14T12:54:32.038Z,2.88
2022-08-14T12:57:20.781Z,3.03
2022-08-14T13:00:23.113Z,3.97
2022-08-14T13:03:11.709Z,2.88
2022-08-14T13:06:01.303Z,3.47
2022-08-14T13:08:53.178Z,5.40
2022-08-14T13:11:44.945Z,2.78
2022-08-14T13:14:34.129Z,4.80
2022-08-14T13:17:24.576Z,2.90
2022-08-14T13:20:24.328Z,3.75
2022-08-14T13:23:13.987Z,4.15
2022-08-14T13:26:04.231Z,6.22
2022-08-14T13:29:02.423Z,6.18
2022-08-14T13:31:53.743Z,3.63
2022-08-14T13:34:46.024Z,7.88
2022-08-14T13:37:33.601Z,3.67
2022-08-14T13:40:26.630Z,3.50
2022-08-14T13:43:14.804Z,3.38
2022-08-14T13:46:03.329Z,5.93
2022-08-14T13:48:51.590Z,4.45
2022-08-14T13:51:43.398Z,5.25
2022-08-14T13:54:33.047Z,5.28
2022-08-14T13:57:20.044Z,5.25
2022-08-14T14:00:13.448Z,6.13
2022-08-14T14:03:14.015Z,4.13
2022-08-14T14:06:04.563Z,5.03
2022-08-14T14:08:59.171Z,5.80
2022-08-14T14:11:46.394Z,3.65
2022-08-14T14:14:50.887Z,9.45
2022-08-14T14:17:40.245Z,6.25
2022-08-14T14:20:35.388Z,4.28
2022-08-14T14:23:24.777Z,3.55
2022-08-14T14:26:21.737Z,4.03
2022-08-14T14:29:14.536Z,4.63
2022-08-14T14:32:05.078Z,3.95
2022-08-14T14:34:55.768Z,6.07
2022-08-14T14:37:46.596Z,6.78
2022-08-14T14:40:52.703Z,4.10
2022-08-14T14:43:51.684Z,7.07
2022-08-14T14:46:43.409Z,6.22
2022-08-14T14:49:41.855Z,3.22
2022-08-14T14:52:39.684Z,3.72
2022-08-14T14:55:28.691Z,5.65
2022-08-14T14:58:36.853Z,4.32
2022-08-14T15:01:25.826Z,6.25
2022-08-14T15:04:20.167Z,7.18
2022-08-14T15:07:09.051Z,6.63
2022-08-14T15:10:00.195Z,5.72
2022-08-14T15:12:55.866Z,3.35
2022-08-14T15:15:44.068Z,5.03
2022-08-14T15:18:37.789Z,4.68
2022-08-14T15:21:27.765Z,3.30
2022-08-14T15:24:24.490Z,4.45
2022-08-14T15:27:14.531Z,4.55
2022-08-14T15:30:13.798Z,5.63
2022-08-14T15:33:14.784Z,4.93
2022-08-14T15:36:03.829Z,4.15
2022-08-14T15:38:52.483Z,6.63
2022-08-14T15:41:42.082Z,6.97
2022-08-14T15:44:36.758Z,3.72
2022-08-14T15:47:41.684Z,5.82
2022-08-14T15:50:31.406Z,6.65
2022-08-14T15:53:22.547Z,4.35
2022-08-14T15:56:09.753Z,6.72
2022-08-14T15:58:57.049Z,6.13
2022-08-14T16:01:54.274Z,7.80
2022-08-14T16:04:42.167Z,3.97
2022-08-14T16:07:29.274Z,4.57
2022-08-14T16:10:32.786Z,4.50
2022-08-14T16:13:39.178Z,5.93
2022-08-14T16:16:49.544Z,4.20
2022-08-14T16:19:44.361Z,6.35
2022-08-14T16:22:58.294Z,6.13
2022-08-14T16:25:44.993Z,5.63
2022-08-14T16:28:34.960Z,4.20
2022-08-14T16:31:24.851Z,4.97
2022-08-14T16:34:45.965Z,3.85
2022-08-14T16:37:34.140Z,4.35
2022-08-14T16:43:17.146Z,4.80
2022-08-14T16:46:06.828Z,6.10
2022-08-14T16:48:57.687Z,4.05
2022-08-14T16:51:46.689Z,3.83
2022-08-14T16:54:45.101Z,4.10
2022-08-14T16:57:32.939Z,5.75
2022-08-14T17:00:32.841Z,4.03
2022-08-14T17:03:21.413Z,4.15
2022-08-14T17:06:30.575Z,4.65
2022-08-14T17:09:33.245Z,5.55
2022-08-14T17:12:33.412Z,3.95
2022-08-14T17:15:22.637Z,5.00
2022-08-14T17:18:15.072Z,5.63
2022-08-14T17:21:21.628Z,7.65
2022-08-14T17:27:24.467Z,4.05
2022-08-14T17:30:32.365Z,4.55
2022-08-14T17:33:23.322Z,5.25
2022-08-14T17:36:20.692Z,5.93
2022-08-14T17:39:13.352Z,6.25
2022-08-14T17:42:03.569Z,4.67
2022-08-14T17:45:02.853Z,7.72
2022-08-14T17:47:51.319Z,4.93
2022-08-14T17:50:59.881Z,5.00
2022-08-14T17:53:53.280Z,4.68
2022-08-14T17:56:40.781Z,6.80
2022-08-14T17:59:29.522Z,4.85
2022-08-14T18:02:19.029Z,4.95
2022-08-14T18:05:09.817Z,4.68
2022-08-14T18:08:31.950Z,5.28
2022-08-14T18:11:07.247Z,8.10
2022-08-14T18:14:00.687Z,4.45
2022-08-14T18:16:47.888Z,6.10
2022-08-14T18:19:38.298Z,5.20
2022-08-14T18:22:32.322Z,5.65
2022-08-14T18:25:26.408Z,7.43
2022-08-14T18:28:51.395Z,4.82
2022-08-14T18:31:42.289Z,5.40
2022-08-14T18:34:48.450Z,7.97
2022-08-14T18:37:39.337Z,7.13
2022-08-14T18:40:34.738Z,5.82
2022-08-14T18:43:44.160Z,6.00
2022-08-14T18:47:00.149Z,7.30
2022-08-14T18:50:19.131Z,8.07
2022-08-14T18:56:10.126Z,7.68
2022-08-14T18:58:59.019Z,8.45
2022-08-14T19:01:56.263Z,8.77
2022-08-14T19:04:43.911Z,6.15
2022-08-14T19:07:35.462Z,6.38
2022-08-14T19:10:37.352Z,7.25
2022-08-14T19:13:48.546Z,8.02
2022-08-14T19:16:43.147Z,6.55
2022-08-14T19:19:40.324Z,6.57
2022-08-14T19:22:31.286Z,7.55
2022-08-14T19:25:47.998Z,7.05
2022-08-14T19:28:49.047Z,7.55
2022-08-14T19:31:42.520Z,5.50
2022-08-14T19:34:52.351Z,10.07
2022-08-14T19:37:52.475Z,7.32
2022-08-14T19:40:42.891Z,10.65
2022-08-14T19:43:55.345Z,6.82
2022-08-14T19:47:01.445Z,8.50
2022-08-14T19:50:24.698Z,9.10
2022-08-14T19:53:05.321Z,11.13
2022-08-14T19:56:02.072Z,7.47
2022-08-14T19:58:55.473Z,11.95
2022-08-14T20:01:46.674Z,8.95
2022-08-14T20:04:45.998Z,7.70
2022-08-14T20:07:59.070Z,7.28
2022-08-14T20:11:03.673Z,8.63
2022-08-14T20:14:10.184Z,11.00
2022-08-14T20:17:06.357Z,9.98
2022-08-14T20:19:54.615Z,8.60
2022-08-14T20:22:41.532Z,6.85
2022-08-14T20:25:38.244Z,8.38
2022-08-14T20:28:35.897Z,10.43
2022-08-14T20:31:23.636Z,6.75
2022-08-14T20:34:39.116Z,6.40
2022-08-14T20:40:26.047Z,7.53
2022-08-14T20:43:35.433Z,8.27
2022-08-14T20:46:30.045Z,7.45
2022-08-14T20:49:18.756Z,7.85
2022-08-14T20:52:19.876Z,8.88
2022-08-14T20:55:23.648Z,8.35
2022-08-14T20:58:38.830Z,8.55
2022-08-14T21:01:36.338Z,6.88
2022-08-14T21:04:26.943Z,6.10
2022-08-14T21:07:25.069Z,8.00
2022-08-14T21:10:36.181Z,8.70
2022-08-14T21:14:19.823Z,9.68
2022-08-14T21:16:58.491Z,7.75
2022-08-14T21:19:46.260Z,8.43
2022-08-14T21:22:37.781Z,8.90
2022-08-14T21:25:25.079Z,8.82
2022-08-14T21:28:29.795Z,10.07
2022-08-14T21:31:18.108Z,9.93
2022-08-14T21:34:27.424Z,10.25
2022-08-14T21:37:20.432Z,7.97
2022-08-14T21:40:18.578Z,8.57
2022-08-14T21:43:20.993Z,9.65
2022-08-14T21:46:08.075Z,8.93
2022-08-14T21:48:55.513Z,9.15
2022-08-14T21:51:54.873Z,11.82
2022-08-14T21:54:49.778Z,12.07
2022-08-14T22:00:46.794Z,14.18
2022-08-14T22:03:39.589Z,13.98
2022-08-14T22:06:33.708Z,13.68
2022-08-14T22:09:29.091Z,12.23
2022-08-14T22:12:45.406Z,12.52
2022-08-14T22:15:30.687Z,11.85
2022-08-14T22:18:19.885Z,12.32
2022-08-14T22:21:16.803Z,12.57
2022-08-14T22:24:10.578Z,14.68
2022-08-14T22:27:01.887Z,12.27
2022-08-14T22:29:54.965Z,17.50
2022-08-14T22:32:56.526Z,21.25
2022-08-14T22:35:46.361Z,20.83
2022-08-14T22:38:49.479Z,9.77
2022-08-14T22:41:42.490Z,11.02
2022-08-14T22:47:24.812Z,10.15
2022-08-14T22:50:31.701Z,8.20
2022-08-14T22:53:20.506Z,9.30
2022-08-14T22:56:07.954Z,11.35
2022-08-14T22:59:10.268Z,9.43
2022-08-14T23:02:06.502Z,9.45
2022-08-14T23:05:03.529Z,8.73
2022-08-14T23:08:58.370Z,10.50
2022-08-14T23:11:03.044Z,8.85
2022-08-14T23:13:50.413Z,9.98
2022-08-14T23:16:37.927Z,7.22
2022-08-14T23:19:33.690Z,7.97
2022-08-14T23:22:22.654Z,9.35
2022-08-14T23:25:12.544Z,8.77
2022-08-14T23:28:04.061Z,6.70
2022-08-14T23:30:52.535Z,5.97
2022-08-14T23:33:51.802Z,6.55
2022-08-14T23:36:53.539Z,5.80
2022-08-14T23:39:42.331Z,7.13
2022-08-14T23:42:40.139Z,6.63
2022-08-14T23:45:36.526Z,8.40
2022-08-14T23:48:28.191Z,8.13
2022-08-14T23:51:20.044Z,8.05
2022-08-14T23:54:47.454Z,28.10
2022-08-14T23:57:15.778Z,6.22
